createdAt,value
2023-05-06T00:02:16.195Z,99154.69
2023-05-06T00:04:43.388Z,99153.91
2023-05-06T00:07:10.646Z,99155.59
2023-05-06T00:09:37.499Z,99160.84
2023-05-06T00:12:05.654Z,99150.28
2023-05-06T00:14:32.599Z,99150.34
2023-05-06T00:16:59.735Z,99152.06
2023-05-06T00:19:27.497Z,99150.34
2023-05-06T00:21:55.944Z,99152.97
2023-05-06T00:24:23.035Z,99146.84
2023-05-06T00:26:50.470Z,99145.13
2023-05-06T00:29:17.444Z,99145.13
2023-05-06T00:31:45.425Z,99141.59
2023-05-06T00:34:12.482Z,99147.63
2023-05-06T00:36:39.670Z,99150.25
2023-05-06T00:39:06.505Z,99140.63
2023-05-06T00:41:34.096Z,99132.78
2023-05-06T00:44:01.044Z,99146.72
2023-05-06T00:46:28.224Z,99139.69
2023-05-06T00:48:55.700Z,99148.28
2023-05-06T00:51:23.072Z,99151.81
2023-05-06T00:53:50.421Z,99149.09
2023-05-06T00:56:20.586Z,99149.94
2023-05-06T00:58:48.368Z,99149.88
2023-05-06T01:01:15.804Z,99146.31
2023-05-06T01:03:42.901Z,99148.00
2023-05-06T01:06:32.603Z,99143.59
2023-05-06T01:09:32.009Z,99138.28
2023-05-06T01:12:09.355Z,99147.06
2023-05-06T01:14:54.324Z,99145.41
2023-05-06T01:17:26.598Z,99146.22
2023-05-06T01:19:58.447Z,99143.66
2023-05-06T01:22:27.238Z,99147.19
2023-05-06T01:24:54.039Z,99148.09
2023-05-06T01:27:21.944Z,99146.34
2023-05-06T01:29:49.355Z,99150.75
2023-05-06T01:32:19.417Z,99148.22
2023-05-06T01:35:17.910Z,99153.63
2023-05-06T01:37:56.644Z,99157.25
2023-05-06T01:40:27.522Z,99161.75
2023-05-06T01:42:55.749Z,99163.53
2023-05-06T01:45:27.767Z,99165.34
2023-05-06T01:47:56.954Z,99161.94
2023-05-06T01:50:23.943Z,99160.31
2023-05-06T01:53:01.984Z,99163.94
2023-05-06T01:55:29.396Z,99155.31
2023-05-06T01:57:59.602Z,99161.50
2023-05-06T02:00:26.710Z,99160.75
2023-05-06T02:02:54.132Z,99154.81
2023-05-06T02:05:21.217Z,99154.88
2023-05-06T02:07:48.452Z,99150.63
2023-05-06T02:10:15.404Z,99142.00
2023-05-06T02:12:42.694Z,99148.19
2023-05-06T02:15:10.495Z,99152.56
2023-05-06T02:17:38.707Z,99153.53
2023-05-06T02:20:06.238Z,99146.72
2023-05-06T02:22:33.372Z,99139.75
2023-05-06T02:25:00.197Z,99144.19
2023-05-06T02:27:27.723Z,99144.28
2023-05-06T02:29:54.636Z,99142.63
2023-05-06T02:32:21.858Z,99140.03
2023-05-06T02:34:48.845Z,99148.81
2023-05-06T02:37:16.219Z,99145.34
2023-05-06T02:39:43.071Z,99145.41
2023-05-06T02:42:14.045Z,99134.97
2023-05-06T02:44:40.966Z,99137.59
2023-05-06T02:47:08.163Z,99137.59
2023-05-06T02:49:35.070Z,99135.06
2023-05-06T02:52:02.308Z,99128.91
2023-05-06T02:54:29.168Z,99133.28
2023-05-06T02:56:56.362Z,99127.16
2023-05-06T02:59:23.792Z,99129.69
2023-05-06T03:01:50.972Z,99120.88
2023-05-06T03:04:18.037Z,99124.25
2023-05-06T03:06:45.165Z,99121.59
2023-05-06T03:09:11.976Z,99123.22
2023-05-06T03:11:39.056Z,99125.72
2023-05-06T03:14:05.989Z,99122.06
2023-05-06T03:16:33.229Z,99124.34
2023-05-06T03:19:00.343Z,99129.38
2023-05-06T03:21:27.644Z,99133.56
2023-05-06T03:23:54.601Z,99122.06
2023-05-06T03:26:21.773Z,99120.13
2023-05-06T03:28:48.640Z,99119.06
2023-05-06T03:31:16.183Z,99117.97
2023-05-06T03:33:43.097Z,99110.72
2023-05-06T03:36:10.228Z,99112.16
2023-05-06T03:38:37.029Z,99116.22
2023-05-06T03:41:04.843Z,99122.88
2023-05-06T03:43:31.688Z,99126.91
2023-05-06T03:45:58.840Z,99128.31
2023-05-06T03:48:25.965Z,99135.78
2023-05-06T03:50:53.184Z,99138.00
2023-05-06T03:53:20.216Z,99134.88
2023-05-06T03:55:47.430Z,99143.09
2023-05-06T03:58:14.281Z,99150.44
2023-05-06T04:00:41.593Z,99149.00
2023-05-06T04:03:08.543Z,99150.19
2023-05-06T04:05:36.329Z,99150.44
2023-05-06T04:08:03.306Z,99154.19
2023-05-06T04:10:31.120Z,99153.53
2023-05-06T04:12:58.071Z,99144.16
2023-05-06T04:15:25.491Z,99140.94
2023-05-06T04:17:52.414Z,99148.22
2023-05-06T04:20:20.418Z,99151.09
2023-05-06T04:22:47.301Z,99138.97
2023-05-06T04:25:14.421Z,99129.50
2023-05-06T04:27:41.517Z,99134.81
2023-05-06T04:30:09.589Z,99129.16
2023-05-06T04:32:37.025Z,99133.94
2023-05-06T04:35:04.910Z,99121.69
2023-05-06T04:37:31.736Z,99116.50
2023-05-06T04:39:58.856Z,99115.00
2023-05-06T04:42:25.728Z,99119.28
2023-05-06T04:44:52.980Z,99120.91
2023-05-06T04:47:19.808Z,99122.47
2023-05-06T04:49:47.282Z,99126.41
2023-05-06T04:52:14.141Z,99123.41
2023-05-06T04:54:42.573Z,99126.66
2023-05-06T04:57:10.358Z,99120.25
2023-05-06T04:59:37.490Z,99127.00
2023-05-06T05:02:04.498Z,99127.72
2023-05-06T05:04:31.622Z,99126.34
2023-05-06T05:06:58.773Z,99130.84
2023-05-06T05:09:26.421Z,99123.66
2023-05-06T05:11:53.407Z,99122.31
2023-05-06T05:14:20.502Z,99114.31
2023-05-06T05:16:47.439Z,99132.94
2023-05-06T05:19:14.589Z,99118.34
2023-05-06T05:21:41.460Z,99122.16
2023-05-06T05:24:08.652Z,99115.50
2023-05-06T05:26:35.621Z,99129.44
2023-05-06T05:29:02.947Z,99124.22
2023-05-06T05:31:31.462Z,99132.53
2023-05-06T05:33:58.678Z,99137.88
2023-05-06T05:36:26.089Z,99131.16
2023-05-06T05:38:53.259Z,99132.06
2023-05-06T05:41:20.143Z,99140.03
2023-05-06T05:43:47.299Z,99136.81
2023-05-06T05:46:14.432Z,99139.28
2023-05-06T05:48:42.061Z,99140.56
2023-05-06T05:51:08.956Z,99137.19
2023-05-06T05:53:36.237Z,99141.19
2023-05-06T05:56:03.042Z,99132.28
2023-05-06T05:58:30.196Z,99122.00
2023-05-06T06:00:57.053Z,99142.13
2023-05-06T06:03:24.271Z,99132.25
2023-05-06T06:05:53.237Z,99129.34
2023-05-06T06:08:20.604Z,99112.50
2023-05-06T06:10:47.483Z,99119.50
2023-05-06T06:13:14.722Z,99126.53
2023-05-06T06:15:41.657Z,99117.22
2023-05-06T06:18:09.031Z,99120.66
2023-05-06T06:20:36.652Z,99106.72
2023-05-06T06:23:03.783Z,99123.78
2023-05-06T06:25:30.653Z,99119.31
2023-05-06T06:27:57.899Z,99122.47
2023-05-06T06:30:24.927Z,99124.75
2023-05-06T06:32:53.613Z,99127.63
2023-05-06T06:35:20.688Z,99132.91
2023-05-06T06:37:47.992Z,99121.91
2023-05-06T06:40:15.219Z,99127.41
2023-05-06T06:42:42.470Z,99121.00
2023-05-06T06:45:10.116Z,99131.72
2023-05-06T06:47:37.603Z,99123.56
2023-05-06T06:50:04.918Z,99129.28
2023-05-06T06:52:32.086Z,99129.50
2023-05-06T06:54:58.988Z,99133.69
2023-05-06T06:57:26.657Z,99129.78
2023-05-06T06:59:54.837Z,99124.19
2023-05-06T07:02:22.492Z,99128.84
2023-05-06T07:04:49.433Z,99128.38
2023-05-06T07:07:16.572Z,99120.31
2023-05-06T07:09:44.520Z,99118.75
2023-05-06T07:12:12.440Z,99120.69
2023-05-06T07:14:39.542Z,99111.84
2023-05-06T07:17:06.688Z,99102.03
2023-05-06T07:19:33.621Z,99099.25
2023-05-06T07:22:01.053Z,99098.06
2023-05-06T07:24:27.905Z,99087.78
2023-05-06T07:26:55.087Z,99089.59
2023-05-06T07:29:21.953Z,99082.88
2023-05-06T07:31:49.085Z,99092.75
2023-05-06T07:34:15.899Z,99098.63
2023-05-06T07:36:44.805Z,99095.13
2023-05-06T07:39:12.410Z,99091.75
2023-05-06T07:41:39.898Z,99093.81
2023-05-06T07:44:06.892Z,99094.66
2023-05-06T07:46:34.198Z,99097.03
2023-05-06T07:49:01.096Z,99093.44
2023-05-06T07:51:28.285Z,99104.38
2023-05-06T07:53:55.188Z,99092.22
2023-05-06T07:56:22.394Z,99090.13
2023-05-06T07:58:49.432Z,99089.84
2023-05-06T08:01:16.699Z,99083.53
2023-05-06T08:03:44.162Z,99083.06
2023-05-06T08:06:11.444Z,99087.44
2023-05-06T08:08:38.298Z,99079.78
2023-05-06T08:11:05.541Z,99076.53
2023-05-06T08:13:33.623Z,99078.28
2023-05-06T08:16:02.453Z,99078.22
2023-05-06T08:18:30.064Z,99066.28
2023-05-06T08:20:57.290Z,99068.09
2023-05-06T08:23:24.292Z,99064.84
2023-05-06T08:25:51.994Z,99071.47
2023-05-06T08:28:19.534Z,99074.41
2023-05-06T08:30:48.482Z,99055.97
2023-05-06T08:33:15.444Z,99048.84
2023-05-06T08:35:42.586Z,99048.41
2023-05-06T08:38:09.466Z,99067.28
2023-05-06T08:40:43.031Z,99070.06
2023-05-06T08:43:14.828Z,99053.53
2023-05-06T08:45:42.682Z,99070.94
2023-05-06T08:48:09.908Z,99055.75
2023-05-06T08:50:42.355Z,99055.88
2023-05-06T08:53:13.651Z,99056.59
2023-05-06T08:55:42.602Z,99045.59
2023-05-06T08:58:11.915Z,99047.16
2023-05-06T09:00:39.512Z,99056.34
2023-05-06T09:03:06.730Z,99035.94
2023-05-06T09:05:34.124Z,99033.09
2023-05-06T09:08:01.065Z,99049.44
2023-05-06T09:10:54.237Z,99044.91
2023-05-06T09:13:21.144Z,99038.28
2023-05-06T09:15:49.214Z,99048.00
2023-05-06T09:18:17.186Z,99045.56
2023-05-06T09:20:46.920Z,99031.13
2023-05-06T09:23:16.001Z,99029.16
2023-05-06T09:25:44.568Z,99029.47
2023-05-06T09:28:13.538Z,99019.72
2023-05-06T09:30:42.275Z,99028.16
2023-05-06T09:33:09.984Z,99001.34
2023-05-06T09:35:41.231Z,99015.03
2023-05-06T09:38:09.013Z,99043.22
2023-05-06T09:40:37.492Z,99031.25
2023-05-06T09:43:05.178Z,99021.78
2023-05-06T09:45:33.295Z,99023.22
2023-05-06T09:48:01.185Z,99017.16
2023-05-06T09:50:28.834Z,99006.28
2023-05-06T09:52:56.370Z,99004.91
2023-05-06T09:55:23.781Z,99016.41
2023-05-06T09:57:50.768Z,99008.34
2023-05-06T10:00:18.725Z,99007.91
2023-05-06T10:02:47.895Z,98998.84
2023-05-06T10:05:17.329Z,99005.22
2023-05-06T10:07:46.243Z,98997.69
2023-05-06T10:10:13.773Z,98983.00
2023-05-06T10:12:40.950Z,98976.81
2023-05-06T10:15:09.374Z,98982.31
2023-05-06T10:17:39.770Z,99014.88
2023-05-06T10:20:09.760Z,98987.00
2023-05-06T10:23:03.572Z,98975.53
2023-05-06T10:25:37.259Z,98972.06
2023-05-06T10:28:14.547Z,98975.88
2023-05-06T10:30:58.647Z,98967.97
2023-05-06T10:33:26.292Z,98959.00
2023-05-06T10:36:14.501Z,98960.09
2023-05-06T10:38:43.732Z,98957.03
2023-05-06T10:41:12.624Z,98946.66
2023-05-06T10:43:42.028Z,98949.75
2023-05-06T10:46:11.339Z,98948.41
2023-05-06T10:48:40.410Z,98933.69
2023-05-06T10:51:16.777Z,98939.59
2023-05-06T10:53:55.682Z,98937.16
2023-05-06T10:56:22.840Z,98930.34
2023-05-06T10:58:49.769Z,98934.75
2023-05-06T11:01:17.535Z,98944.66
2023-05-06T11:03:44.639Z,98945.28
2023-05-06T11:06:12.045Z,98942.19
2023-05-06T11:08:39.242Z,98939.69
2023-05-06T11:11:49.215Z,98931.38
2023-05-06T11:14:25.951Z,98925.59
2023-05-06T11:16:55.547Z,98922.59
2023-05-06T11:19:23.849Z,98930.41
2023-05-06T11:21:51.499Z,98916.69
2023-05-06T11:24:28.660Z,98902.28
2023-05-06T11:26:57.021Z,98898.84
2023-05-06T11:29:24.388Z,98898.91
2023-05-06T11:31:54.177Z,98898.84
2023-05-06T11:34:26.802Z,98880.50
2023-05-06T11:37:06.061Z,98880.09
2023-05-06T11:39:40.590Z,98887.44
2023-05-06T11:42:09.161Z,98873.25
2023-05-06T11:44:38.138Z,98871.47
2023-05-06T11:47:09.433Z,98873.59
2023-05-06T11:49:41.265Z,98875.97
2023-05-06T11:52:13.097Z,98866.16
2023-05-06T11:54:41.677Z,98861.78
2023-05-06T11:57:09.836Z,98859.78
2023-05-06T11:59:38.362Z,98860.34
2023-05-06T12:02:07.775Z,98855.72
2023-05-06T12:04:38.796Z,98854.56
2023-05-06T12:07:07.729Z,98854.16
2023-05-06T12:09:37.083Z,98851.03
2023-05-06T12:12:05.407Z,98842.16
2023-05-06T12:14:32.673Z,98836.97
2023-05-06T12:17:00.022Z,98833.25
2023-05-06T12:19:28.413Z,98824.88
2023-05-06T12:21:55.891Z,98819.44
2023-05-06T12:24:30.009Z,98808.44
2023-05-06T12:26:57.168Z,98793.75
2023-05-06T12:29:24.030Z,98808.13
2023-05-06T12:32:08.637Z,98801.50
2023-05-06T12:34:40.436Z,98798.53
2023-05-06T12:37:08.852Z,98779.47
2023-05-06T12:39:37.268Z,98797.16
2023-05-06T12:42:05.096Z,98797.91
2023-05-06T12:44:37.973Z,98786.81
2023-05-06T12:47:07.533Z,98790.03
2023-05-06T12:49:51.093Z,98792.88
2023-05-06T12:52:20.390Z,98784.72
2023-05-06T12:54:47.971Z,98773.25
2023-05-06T12:57:15.894Z,98781.53
2023-05-06T12:59:44.333Z,98782.81
2023-05-06T13:02:12.026Z,98773.34
2023-05-06T13:04:39.462Z,98765.47
2023-05-06T13:07:06.742Z,98764.59
2023-05-06T13:09:33.766Z,98758.41
2023-05-06T13:12:01.341Z,98751.88
2023-05-06T13:14:28.222Z,98767.06
2023-05-06T13:16:56.122Z,98765.91
2023-05-06T13:19:32.435Z,98743.50
2023-05-06T13:22:01.725Z,98761.66
2023-05-06T13:24:29.320Z,98762.88
2023-05-06T13:26:57.268Z,98752.31
2023-05-06T13:29:24.650Z,98732.03
2023-05-06T13:31:52.350Z,98732.53
2023-05-06T13:34:19.297Z,98740.00
2023-05-06T13:36:49.132Z,98721.28
2023-05-06T13:39:16.284Z,98719.31
2023-05-06T13:41:46.903Z,98730.09
2023-05-06T13:44:14.093Z,98729.59
2023-05-06T13:46:43.012Z,98724.59
2023-05-06T13:49:11.657Z,98759.38
2023-05-06T13:51:38.898Z,98720.41
2023-05-06T13:54:06.069Z,98718.38
2023-05-06T13:56:34.347Z,98711.78
2023-05-06T13:59:01.198Z,98703.91
2023-05-06T14:01:28.422Z,98706.50
2023-05-06T14:03:55.331Z,98708.22
2023-05-06T14:06:22.434Z,98701.69
2023-05-06T14:08:49.293Z,98688.22
2023-05-06T14:11:16.508Z,98691.31
2023-05-06T14:13:43.428Z,98696.94
2023-05-06T14:16:10.657Z,98697.31
2023-05-06T14:18:37.530Z,98682.38
2023-05-06T14:21:04.726Z,98668.44
2023-05-06T14:23:32.592Z,98670.84
2023-05-06T14:26:00.153Z,98664.31
2023-05-06T14:28:27.002Z,98666.03
2023-05-06T14:30:54.259Z,98648.91
2023-05-06T14:33:23.235Z,98645.13
2023-05-06T14:35:52.838Z,98636.63
2023-05-06T14:38:20.164Z,98636.47
2023-05-06T14:40:47.350Z,98638.31
2023-05-06T14:43:14.182Z,98645.19
2023-05-06T14:45:41.384Z,98651.50
2023-05-06T14:48:08.418Z,98635.09
2023-05-06T14:50:35.595Z,98634.59
2023-05-06T14:53:03.786Z,98636.97
2023-05-06T14:55:31.339Z,98635.78
2023-05-06T14:57:58.236Z,98628.50
2023-05-06T15:00:25.534Z,98629.47
2023-05-06T15:02:52.408Z,98615.88
2023-05-06T15:05:19.681Z,98620.84
2023-05-06T15:07:46.544Z,98607.69
2023-05-06T15:10:13.808Z,98616.09
2023-05-06T15:12:40.879Z,98608.53
2023-05-06T15:15:08.792Z,98602.97
2023-05-06T15:17:35.865Z,98611.22
2023-05-06T15:20:04.503Z,98598.91
2023-05-06T15:22:31.352Z,98594.44
2023-05-06T15:24:58.489Z,98605.56
2023-05-06T15:27:25.515Z,98607.50
2023-05-06T15:29:52.647Z,98590.38
2023-05-06T15:32:19.554Z,98607.13
2023-05-06T15:34:46.687Z,98600.09
2023-05-06T15:37:15.958Z,98583.47
2023-05-06T15:39:43.079Z,98588.22
2023-05-06T15:42:10.943Z,98581.81
2023-05-06T15:44:38.108Z,98565.50
2023-05-06T15:47:05.312Z,98553.47
2023-05-06T15:52:02.311Z,98601.97
2023-05-06T15:54:29.561Z,98574.44
2023-05-06T15:56:56.836Z,98578.78
2023-05-06T15:59:24.065Z,98571.88
2023-05-06T16:02:25.730Z,98578.91
2023-05-06T16:04:38.520Z,98574.34
2023-05-06T16:07:05.660Z,98578.38
2023-05-06T16:09:32.876Z,98581.19
2023-05-06T16:11:59.981Z,98583.84
2023-05-06T16:14:27.165Z,98581.91
2023-05-06T16:16:54.056Z,98591.00
2023-05-06T16:19:21.213Z,98589.69
2023-05-06T16:21:48.481Z,98597.13
2023-05-06T16:24:16.171Z,98601.38
2023-05-06T16:26:43.022Z,98629.78
2023-05-06T16:29:10.336Z,98662.19
2023-05-06T16:31:37.498Z,98672.50
2023-05-06T16:34:04.754Z,98673.53
2023-05-06T16:36:31.770Z,98681.50
2023-05-06T16:38:58.892Z,98720.28
2023-05-06T16:41:25.923Z,98724.16
2023-05-06T16:43:53.098Z,98720.72
2023-05-06T16:46:21.432Z,98738.78
2023-05-06T16:48:51.515Z,98736.47
2023-05-06T16:51:18.404Z,98738.00
2023-05-06T16:53:45.567Z,98732.31
2023-05-06T16:56:13.568Z,98739.53
2023-05-06T16:58:41.154Z,98743.81
2023-05-06T17:01:08.269Z,98746.25
2023-05-06T17:03:38.645Z,98761.50
2023-05-06T17:06:05.942Z,98756.78
2023-05-06T17:08:36.235Z,98753.50
2023-05-06T17:11:06.919Z,98750.28
2023-05-06T17:13:34.775Z,98741.69
2023-05-06T17:16:01.743Z,98744.44
2023-05-06T17:18:29.012Z,98740.25
2023-05-06T17:20:57.137Z,98736.97
2023-05-06T17:23:25.118Z,98728.72
2023-05-06T17:25:52.075Z,98723.09
2023-05-06T17:28:19.276Z,98722.69
2023-05-06T17:30:46.788Z,98712.44
2023-05-06T17:33:14.150Z,98714.84
2023-05-06T17:35:41.022Z,98722.53
2023-05-06T17:38:11.080Z,98730.09
2023-05-06T17:40:37.912Z,98729.72
2023-05-06T17:43:05.157Z,98721.41
2023-05-06T17:45:32.168Z,98715.03
2023-05-06T17:48:00.641Z,98707.75
2023-05-06T17:50:27.568Z,98713.63
2023-05-06T17:52:55.318Z,98720.19
2023-05-06T17:55:22.539Z,98727.38
2023-05-06T17:57:50.333Z,98722.19
2023-05-06T18:00:17.401Z,98722.19
2023-05-06T18:02:45.443Z,98710.16
2023-05-06T18:05:13.552Z,98705.91
2023-05-06T18:07:41.134Z,98705.13
2023-05-06T18:10:08.681Z,98707.03
2023-05-06T18:12:36.174Z,98707.97
2023-05-06T18:15:03.203Z,98705.41
2023-05-06T18:17:30.705Z,98706.44
2023-05-06T18:19:57.596Z,98710.13
2023-05-06T18:22:24.763Z,98699.72
2023-05-06T18:24:55.312Z,98705.09
2023-05-06T18:27:23.164Z,98701.69
2023-05-06T18:29:50.062Z,98693.06
2023-05-06T18:32:18.340Z,98687.28
2023-05-06T18:34:45.404Z,98684.03
2023-05-06T18:37:12.663Z,98678.16
2023-05-06T18:39:41.850Z,98684.00
2023-05-06T18:42:09.842Z,98673.19
2023-05-06T18:44:36.888Z,98653.03
2023-05-06T18:47:04.138Z,98665.50
2023-05-06T18:49:31.394Z,98669.34
2023-05-06T18:51:58.697Z,98657.09
2023-05-06T18:54:25.619Z,98658.00
2023-05-06T18:56:52.769Z,98653.75
2023-05-06T18:59:22.751Z,98659.22
2023-05-06T19:01:49.952Z,98662.78
2023-05-06T19:04:16.804Z,98671.69
2023-05-06T19:06:43.909Z,98652.41
2023-05-06T19:09:11.401Z,98662.72
2023-05-06T19:11:38.808Z,98666.03
2023-05-06T19:14:05.758Z,98671.41
2023-05-06T19:16:32.970Z,98666.97
2023-05-06T19:19:00.049Z,98670.31
2023-05-06T19:21:27.992Z,98663.03
2023-05-06T19:23:59.734Z,98666.38
2023-05-06T19:26:30.047Z,98662.84
2023-05-06T19:28:56.995Z,98666.44
2023-05-06T19:31:24.278Z,98666.44
2023-05-06T19:33:51.184Z,98668.31
2023-05-06T19:36:18.355Z,98665.03
2023-05-06T19:38:45.316Z,98668.59
2023-05-06T19:41:13.269Z,98664.13
2023-05-06T19:43:42.246Z,98668.50
2023-05-06T19:46:10.735Z,98668.50
2023-05-06T19:48:39.080Z,98665.75
2023-05-06T19:51:06.840Z,98666.63
2023-05-06T19:53:34.283Z,98674.38
2023-05-06T19:56:14.390Z,98670.03
2023-05-06T19:58:41.343Z,98668.06
2023-05-06T20:01:09.290Z,98663.44
2023-05-06T20:03:36.464Z,98664.28
2023-05-06T20:06:04.221Z,98665.06
2023-05-06T20:08:31.279Z,98670.28
2023-05-06T20:10:58.487Z,98670.28
2023-05-06T20:13:26.036Z,98665.75
2023-05-06T20:15:54.988Z,98666.59
2023-05-06T20:18:21.987Z,98675.56
2023-05-06T20:20:49.281Z,98660.47
2023-05-06T20:23:16.119Z,98669.31
2023-05-06T20:25:43.234Z,98671.28
2023-05-06T20:28:10.090Z,98672.22
2023-05-06T20:30:38.559Z,98673.19
2023-05-06T20:33:05.727Z,98668.91
2023-05-06T20:35:38.157Z,98664.50
2023-05-06T20:38:06.163Z,98667.13
2023-05-06T20:40:35.757Z,98664.50
2023-05-06T20:43:03.036Z,98674.13
2023-05-06T20:45:31.467Z,98665.34
2023-05-06T20:47:58.730Z,98667.03
2023-05-06T20:50:26.313Z,98678.47
2023-05-06T20:52:54.451Z,98675.72
2023-05-06T20:55:23.389Z,98680.09
2023-05-06T20:57:50.549Z,98685.19
2023-05-06T21:00:18.069Z,98680.66
2023-05-06T21:02:44.948Z,98673.50
2023-05-06T21:05:12.354Z,98682.19
2023-05-06T21:07:39.507Z,98681.16
2023-05-06T21:10:07.062Z,98691.66
2023-05-06T21:12:34.134Z,98685.41
2023-05-06T21:15:01.421Z,98681.75
2023-05-06T21:17:28.967Z,98688.66
2023-05-06T21:19:56.434Z,98678.06
2023-05-06T21:22:24.120Z,98687.56
2023-05-06T21:24:51.454Z,98682.94
2023-05-06T21:27:18.409Z,98688.13
2023-05-06T21:29:45.622Z,98682.75
2023-05-06T21:32:12.469Z,98680.97
2023-05-06T21:34:39.664Z,98687.13
2023-05-06T21:37:06.557Z,98683.81
2023-05-06T21:39:33.758Z,98688.31
2023-05-06T21:42:00.696Z,98683.03
2023-05-06T21:44:27.840Z,98680.72
2023-05-06T21:46:54.937Z,98680.13
2023-05-06T21:49:22.423Z,98683.81
2023-05-06T21:51:49.488Z,98684.84
2023-05-06T21:54:17.428Z,98676.34
2023-05-06T21:56:45.009Z,98679.22
2023-05-06T21:59:12.275Z,98688.56
2023-05-06T22:01:39.209Z,98688.19
2023-05-06T22:04:11.505Z,98692.13
2023-05-06T22:06:39.584Z,98686.41
2023-05-06T22:09:09.630Z,98681.66
2023-05-06T22:11:39.536Z,98681.25
2023-05-06T22:14:07.032Z,98679.69
2023-05-06T22:16:35.733Z,98682.75
2023-05-06T22:19:04.041Z,98675.94
2023-05-06T22:21:32.663Z,98680.72
2023-05-06T22:24:00.027Z,98678.22
2023-05-06T22:26:30.216Z,98679.25
2023-05-06T22:28:57.393Z,98683.94
2023-05-06T22:31:24.996Z,98669.88
2023-05-06T22:33:58.093Z,98675.25
2023-05-06T22:36:29.172Z,98680.59
2023-05-06T22:38:56.590Z,98678.97
2023-05-06T22:41:23.417Z,98676.25
2023-05-06T22:43:50.753Z,98670.88
2023-05-06T22:46:17.831Z,98668.94
2023-05-06T22:48:46.376Z,98674.03
2023-05-06T22:51:18.680Z,98668.69
2023-05-06T22:53:45.791Z,98670.31
2023-05-06T22:56:12.813Z,98672.94
2023-05-06T22:58:39.963Z,98671.25
2023-05-06T23:01:07.587Z,98663.41
2023-05-06T23:03:35.860Z,98668.69
2023-05-06T23:06:04.452Z,98670.47
2023-05-06T23:08:31.742Z,98675.16
2023-05-06T23:10:58.604Z,98677.28
2023-05-06T23:13:26.619Z,98682.88
2023-05-06T23:15:53.663Z,98676.91
2023-05-06T23:18:20.928Z,98678.09
2023-05-06T23:20:48.074Z,98679.19
2023-05-06T23:23:15.212Z,98685.56
2023-05-06T23:25:42.074Z,98681.53
2023-05-06T23:28:09.252Z,98682.81
2023-05-06T23:30:36.144Z,98684.88
2023-05-06T23:33:03.866Z,98685.97
2023-05-06T23:35:32.634Z,98691.19
2023-05-06T23:37:59.810Z,98691.38
2023-05-06T23:40:26.744Z,98690.53
2023-05-06T23:42:53.827Z,98692.25
2023-05-06T23:45:20.717Z,98692.41
2023-05-06T23:47:47.898Z,98691.56
2023-05-06T23:50:14.878Z,98693.28
2023-05-06T23:52:42.229Z,98695.91
2023-05-06T23:55:09.653Z,98699.09
2023-05-06T23:57:36.909Z,98689.16
